Black Rock City, NV

6:37 PM PDT on July 04, 2015 (GMT -0700)
Alturas Municipal | | Change Station
CLOSE
Current Station
Airport
Location: Alturas,
Elevation: 4373 ft
Nearby Weather Stations

Elev 4373 ft 41.49 °N, 120.56 °W | Updated 1 hour ago

Overcast
Overcast
91 °F
Feels Like 91 °F
N
9
Wind Variable Wind from SW
Gusts 17 mph

Today
High -- | Low -- °F
--% Chance of Precip.
Yesterday
High -- | Low -- °F
Precip. -- in
5:30 AM 8:31 PM
Waning Gibbous, 89% visible
Pressure 29.78 in
Visibility 10.0 miles
Clouds Clear
Dew Point 41 °F
Humidity 17%
Rainfall 0.00 in
Snow Depth Not available.
UV 5 out of 12
Pollen 3.60 out of 12
Air Quality Not available.
Flu Activity Not available.
METAR KAAT 042355Z AUTO 22008G15KT 10SM CLR 33/05 A2994 RMK AO2 LTG DSNT S SLP085 T03280050 10350 20283 56016

More Conditions Fewer Conditions

Pressure 29.78 in
Visibility 10.0 miles
Clouds Clear
Dew Point 41 °F
Humidity 17%
Rainfall 0.00 in
Snow Depth Not available.
UV 5 out of 12
Pollen 3.60 out of 12
Air Quality Not available.
Flu Activity Not available.
METAR KAAT 042355Z AUTO 22008G15KT 10SM CLR 33/05 A2994 RMK AO2 LTG DSNT S SLP085 T03280050 10350 20283 56016

More Conditions Fewer Conditions

10-Day Weather Forecast

×

Almanac

Astronomy

Jul. 04, 2015 Rise Set
Actual Time
Civil Twilight
Nautical Twilight
Astronomical Twilight
Moon
Length of Visible Light
Length of Day
Tomorrow will be .
, % of the Moon is Illuminated

Today's Extremes

State Highs State Lows

Community

WunderPhotos

Upload Photos

1,835,138 photos uploaded!

WunderBlogs® & News

Nearby

Air Quality

  Air Quality AQ Index Pollutant
Not available.

Snow Depth

Station Depth Elevation

Earthquake Activity

City Distance Mag. Time & Date
Minimum magnitude displayed is 2.5.

Coastal Water Temperatures

Place Temperature

Stations

Nearby Weather Stations

Station Location Temp. Windchill Dew Point Humidity Wind Precip. Elev Updated Type